Time;durP1;ratioP1;P1;durP2;ratioP2;P2;SDS_P1;SDS_P2;PMS_P1;PMS_P2;Temp;Humidity;BMP_temperature;BMP_pressure;BME280_temperature;BME280_humidity;BME280_pressure;Samples;Min_cycle;Max_cycle;Signal;HPM_P1;HPM_P2
2024/03/06 00:00:07;;;;;;;1.42;1.42;;;8.30;99.90;;;;;;5000702;28;20255;-74
2024/03/06 00:02:36;;;;;;;1.38;1.38;;;8.30;99.90;;;;;;4982872;28;20238;-74
2024/03/06 00:05:04;;;;;;;2.45;2.35;;;8.30;99.90;;;;;;5002789;28;20682;-75
2024/03/06 00:07:31;;;;;;;2.03;1.92;;;8.20;99.90;;;;;;5001177;28;20232;-74
2024/03/06 00:09:58;;;;;;;2.10;2.00;;;8.10;99.90;;;;;;5000963;28;20230;-74
2024/03/06 00:12:25;;;;;;;1.77;1.67;;;8.10;99.90;;;;;;5000316;28;20227;-75
2024/03/06 00:14:52;;;;;;;1.80;1.70;;;8.00;99.90;;;;;;5002427;28;20228;-74
2024/03/06 00:17:21;;;;;;;1.73;1.70;;;7.80;99.90;;;;;;5000394;28;20317;-74
2024/03/06 00:19:48;;;;;;;1.67;1.60;;;7.70;99.90;;;;;;5002030;28;20256;-75
2024/03/06 00:22:15;;;;;;;1.70;1.60;;;7.60;99.90;;;;;;5002184;28;20255;-74
2024/03/06 00:24:42;;;;;;;1.80;1.70;;;7.60;99.90;;;;;;4986813;28;20208;-74
2024/03/06 00:27:10;;;;;;;1.92;1.83;;;7.60;99.90;;;;;;5001708;28;20928;-74
2024/03/06 00:29:38;;;;;;;4.03;3.45;;;7.50;99.90;;;;;;4999893;28;20800;-74
2024/03/06 00:32:05;;;;;;;2.85;2.53;;;7.40;99.90;;;;;;4983321;28;20220;-74
2024/03/06 00:34:34;;;;;;;2.22;2.13;;;7.40;99.90;;;;;;4998958;28;20302;-75
2024/03/06 00:37:01;;;;;;;2.22;2.10;;;7.40;99.90;;;;;;4985102;28;20220;-74
2024/03/06 00:39:28;;;;;;;1.98;1.88;;;7.40;99.90;;;;;;4999565;28;20311;-74
2024/03/06 00:41:55;;;;;;;1.77;1.67;;;7.40;99.90;;;;;;5001573;28;20231;-75
2024/03/06 00:44:23;;;;;;;1.80;1.70;;;7.30;99.90;;;;;;5002934;28;20802;-74
2024/03/06 00:46:50;;;;;;;1.40;1.40;;;7.30;99.90;;;;;;5004761;28;20243;-74
2024/03/06 00:49:17;;;;;;;1.60;1.60;;;7.20;99.90;;;;;;4970698;28;20598;-74
2024/03/06 00:51:46;;;;;;;1.55;1.55;;;7.10;99.90;;;;;;5004711;28;20738;-74
2024/03/06 00:54:13;;;;;;;1.63;1.63;;;7.00;99.90;;;;;;5006158;28;20217;-74
2024/03/06 00:56:41;;;;;;;1.83;1.73;;;6.80;99.90;;;;;;5007081;28;20220;-74
2024/03/06 00:59:08;;;;;;;1.60;1.50;;;6.70;99.90;;;;;;4992003;28;20278;-74
2024/03/06 01:01:35;;;;;;;1.70;1.60;;;6.60;99.90;;;;;;5005578;28;20224;-75
2024/03/06 01:04:02;;;;;;;1.48;1.48;;;6.50;99.90;;;;;;5004081;28;20281;-74
2024/03/06 01:06:29;;;;;;;1.40;1.40;;;6.30;99.90;;;;;;5004013;28;20224;-74
2024/03/06 01:08:58;;;;;;;1.90;1.80;;;6.20;99.90;;;;;;5004281;28;20260;-74
2024/03/06 01:11:26;;;;;;;1.45;1.45;;;6.20;99.90;;;;;;5003717;28;20298;-76
2024/03/06 01:13:53;;;;;;;1.50;1.50;;;6.10;99.90;;;;;;5005621;28;20327;-74
2024/03/06 01:16:20;;;;;;;1.52;1.52;;;6.00;99.90;;;;;;4968091;28;20303;-75
2024/03/06 01:18:47;;;;;;;1.70;1.70;;;5.90;99.90;;;;;;4987802;28;20275;-74
2024/03/06 01:21:14;;;;;;;1.60;1.60;;;5.90;99.90;;;;;;5002967;28;20220;-74
2024/03/06 01:23:43;;;;;;;1.80;1.70;;;5.90;99.90;;;;;;4983936;28;20241;-74
2024/03/06 01:26:11;;;;;;;1.73;1.70;;;5.90;99.90;;;;;;4983205;28;20229;-73
2024/03/06 01:28:38;;;;;;;2.22;1.70;;;5.90;99.90;;;;;;5000849;28;20224;-74
2024/03/06 01:31:06;;;;;;;1.60;1.60;;;5.90;99.90;;;;;;4983204;28;20282;-74
2024/03/06 01:33:33;;;;;;;1.80;1.80;;;5.90;99.90;;;;;;5003976;28;20235;-74
2024/03/06 01:36:00;;;;;;;1.70;1.70;;;5.90;99.90;;;;;;5001179;28;20255;-75
2024/03/06 01:38:27;;;;;;;1.50;1.50;;;6.00;99.90;;;;;;4968654;28;20355;-75
2024/03/06 01:40:54;;;;;;;1.63;1.55;;;6.00;99.90;;;;;;4981674;28;20211;-75
2024/03/06 01:43:24;;;;;;;1.70;1.60;;;6.00;99.90;;;;;;4982179;28;20271;-75
2024/03/06 01:45:52;;;;;;;1.70;1.70;;;6.00;99.90;;;;;;4979564;28;20690;-75
2024/03/06 01:48:25;;;;;;;1.70;1.60;;;5.90;99.90;;;;;;4975184;28;20221;-75
2024/03/06 01:50:53;;;;;;;1.80;1.80;;;5.90;99.90;;;;;;4981964;28;20239;-75
2024/03/06 01:53:20;;;;;;;1.75;1.75;;;5.90;99.90;;;;;;4980424;28;20235;-74
2024/03/06 01:55:49;;;;;;;1.77;1.63;;;5.80;99.90;;;;;;4980348;28;20279;-74
2024/03/06 01:58:16;;;;;;;1.48;1.48;;;5.70;99.90;;;;;;4983386;28;20221;-74
2024/03/06 02:00:45;;;;;;;1.60;1.60;;;5.60;99.90;;;;;;4982033;28;20249;-74
2024/03/06 02:03:13;;;;;;;1.80;1.80;;;5.60;99.90;;;;;;4980195;28;20253;-74
2024/03/06 02:05:41;;;;;;;1.60;1.60;;;5.60;99.90;;;;;;4981424;28;20205;-75
2024/03/06 02:08:09;;;;;;;1.63;1.63;;;5.60;99.90;;;;;;4981056;28;20225;-74
2024/03/06 02:10:36;;;;;;;1.45;1.45;;;5.70;99.90;;;;;;4980970;28;20324;-74
2024/03/06 02:13:03;;;;;;;1.50;1.50;;;5.80;99.90;;;;;;4976353;28;20315;-74
2024/03/06 02:15:30;;;;;;;1.50;1.50;;;5.80;99.90;;;;;;4981831;28;20229;-74
2024/03/06 02:17:59;;;;;;;1.65;1.55;;;5.70;99.90;;;;;;4977279;28;20229;-74
2024/03/06 02:20:28;;;;;;;1.60;1.60;;;5.70;99.90;;;;;;4981583;28;20642;-74
2024/03/06 02:22:55;;;;;;;1.77;1.77;;;5.60;99.90;;;;;;4962765;28;20235;-74
2024/03/06 02:25:22;;;;;;;1.50;1.50;;;5.50;99.90;;;;;;4982700;28;20773;-74
2024/03/06 02:27:50;;;;;;;1.40;1.40;;;5.50;99.90;;;;;;4980572;28;20304;-74
2024/03/06 02:30:20;;;;;;;1.60;1.60;;;5.50;99.90;;;;;;4983349;28;20923;-74
2024/03/06 02:32:47;;;;;;;1.80;1.70;;;5.40;99.90;;;;;;4980919;28;20308;-75
2024/03/06 02:35:14;;;;;;;1.73;1.63;;;5.40;99.90;;;;;;4984549;28;20268;-74
2024/03/06 02:37:45;;;;;;;1.60;1.60;;;5.40;99.90;;;;;;4993705;28;20271;-74
2024/03/06 02:40:12;;;;;;;1.60;1.60;;;5.30;99.90;;;;;;5002183;28;20220;-75
2024/03/06 02:42:39;;;;;;;1.65;1.55;;;5.40;99.90;;;;;;5000732;28;20228;-75
2024/03/06 02:45:08;;;;;;;1.65;1.65;;;5.50;99.90;;;;;;4984571;28;20193;-74
2024/03/06 02:47:38;;;;;;;1.73;1.73;;;5.60;99.90;;;;;;4997193;28;20216;-74
2024/03/06 02:50:07;;;;;;;1.70;1.70;;;5.80;99.90;;;;;;5001700;28;20228;-74
2024/03/06 02:52:34;;;;;;;1.60;1.60;;;5.90;99.90;;;;;;5003005;28;20216;-74
2024/03/06 02:55:03;;;;;;;1.70;1.70;;;6.00;99.90;;;;;;5003076;28;20303;-74
2024/03/06 02:57:30;;;;;;;1.80;1.80;;;6.10;99.90;;;;;;5000682;28;20278;-75
2024/03/06 02:59:58;;;;;;;1.85;1.75;;;6.20;99.90;;;;;;5002487;28;20313;-74
2024/03/06 03:02:25;;;;;;;1.80;1.80;;;6.30;99.90;;;;;;4984183;28;20216;-74
2024/03/06 03:04:53;;;;;;;1.70;1.70;;;6.30;99.90;;;;;;4997500;28;20223;-74
2024/03/06 03:07:20;;;;;;;1.55;1.55;;;6.30;99.90;;;;;;4985442;28;20262;-74
2024/03/06 03:09:48;;;;;;;1.90;1.80;;;6.30;99.90;;;;;;5003112;28;20242;-74
2024/03/06 03:12:16;;;;;;;1.40;1.40;;;6.30;99.90;;;;;;5008200;28;20222;-75
2024/03/06 03:14:44;;;;;;;1.30;1.30;;;6.20;99.90;;;;;;4986826;28;20219;-74
2024/03/06 03:17:12;;;;;;;1.30;1.30;;;6.10;99.90;;;;;;5003140;28;20255;-75
2024/03/06 03:19:40;;;;;;;1.58;1.58;;;6.00;99.90;;;;;;4984516;28;20616;-75
2024/03/06 03:22:09;;;;;;;1.58;1.58;;;5.90;99.90;;;;;;5003482;28;20224;-74
2024/03/06 03:24:36;;;;;;;1.70;1.70;;;5.80;99.90;;;;;;4983809;28;20283;-74
2024/03/06 03:27:04;;;;;;;1.48;1.48;;;5.80;99.90;;;;;;5002057;28;20330;-76
2024/03/06 03:29:32;;;;;;;1.50;1.50;;;5.80;99.90;;;;;;4981385;28;20232;-74
2024/03/06 03:31:59;;;;;;;1.50;1.50;;;5.80;99.90;;;;;;4999535;28;20228;-74
2024/03/06 03:34:27;;;;;;;1.70;1.70;;;5.80;99.90;;;;;;5002161;28;20252;-74
2024/03/06 03:36:54;;;;;;;1.75;1.65;;;5.80;99.90;;;;;;4984868;28;20341;-74
2024/03/06 03:39:24;;;;;;;1.80;1.80;;;5.80;99.90;;;;;;5001476;28;20223;-74
2024/03/06 03:41:51;;;;;;;1.60;1.60;;;5.80;99.90;;;;;;4984653;28;20224;-74
2024/03/06 03:44:19;;;;;;;1.80;1.70;;;5.90;99.90;;;;;;4984686;28;20295;-75
2024/03/06 03:46:48;;;;;;;1.65;1.65;;;5.90;99.90;;;;;;4977273;28;20224;-75
2024/03/06 03:49:17;;;;;;;1.60;1.60;;;5.90;99.90;;;;;;4978045;28;20284;-75
2024/03/06 03:51:44;;;;;;;1.67;1.67;;;5.90;99.90;;;;;;4981088;28;20264;-75
2024/03/06 03:54:11;;;;;;;2.10;1.90;;;5.90;99.90;;;;;;4978839;28;20237;-75
2024/03/06 03:56:38;;;;;;;1.60;1.60;;;5.90;99.90;;;;;;4981982;28;20338;-75
2024/03/06 03:59:06;;;;;;;1.48;1.48;;;5.90;99.90;;;;;;4980698;28;20228;-75
2024/03/06 04:01:33;;;;;;;1.60;1.60;;;5.90;99.90;;;;;;4962986;28;20635;-75
2024/03/06 04:04:02;;;;;;;1.58;1.58;;;5.90;99.90;;;;;;4964797;28;20228;-75
2024/03/06 04:06:29;;;;;;;1.80;1.80;;;6.00;99.90;;;;;;4978221;28;20259;-75
2024/03/06 04:08:56;;;;;;;1.70;1.70;;;6.10;99.90;;;;;;4981535;28;20263;-75
2024/03/06 04:11:23;;;;;;;1.40;1.40;;;6.00;99.90;;;;;;4981750;28;20331;-74
2024/03/06 04:13:50;;;;;;;1.80;1.80;;;6.00;99.90;;;;;;4981451;28;20333;-75
2024/03/06 04:16:19;;;;;;;1.40;1.40;;;6.00;99.90;;;;;;4981956;28;20252;-75
2024/03/06 04:18:48;;;;;;;1.42;1.42;;;6.00;99.90;;;;;;5003953;28;20248;-74
2024/03/06 04:21:17;;;;;;;1.60;1.60;;;5.90;99.90;;;;;;5004060;28;20742;-74
2024/03/06 04:23:45;;;;;;;1.48;1.48;;;6.00;99.90;;;;;;4995076;28;20259;-75
2024/03/06 04:26:12;;;;;;;1.75;1.75;;;6.00;99.90;;;;;;5007714;28;20192;-75
2024/03/06 04:28:39;;;;;;;1.30;1.30;;;6.10;99.90;;;;;;5003709;28;20244;-73
2024/03/06 04:31:06;;;;;;;1.60;1.60;;;6.10;99.90;;;;;;4989234;28;22884;-74
2024/03/06 04:33:33;;;;;;;1.70;1.70;;;6.10;99.90;;;;;;4991264;28;20256;-74
2024/03/06 04:36:02;;;;;;;1.48;1.48;;;6.00;99.90;;;;;;4963022;28;20253;-74
2024/03/06 04:38:31;;;;;;;1.60;1.60;;;5.90;99.90;;;;;;4962975;28;20251;-74
2024/03/06 04:40:59;;;;;;;1.80;1.80;;;5.90;99.90;;;;;;4986935;28;20933;-74
2024/03/06 04:43:26;;;;;;;1.70;1.70;;;5.80;99.90;;;;;;4986064;28;20223;-74
2024/03/06 04:45:53;;;;;;;1.67;1.67;;;5.90;99.90;;;;;;5003606;28;20228;-75
2024/03/06 04:48:20;;;;;;;1.67;1.67;;;5.90;99.90;;;;;;5006834;28;20256;-74
2024/03/06 04:50:47;;;;;;;1.60;1.60;;;5.90;99.90;;;;;;5005764;28;20220;-74
2024/03/06 04:53:14;;;;;;;1.60;1.50;;;5.90;99.90;;;;;;4994115;28;20243;-74
2024/03/06 04:55:42;;;;;;;1.55;1.55;;;5.80;99.90;;;;;;5006601;28;20248;-75
2024/03/06 04:58:09;;;;;;;1.80;1.80;;;5.70;99.90;;;;;;4987999;28;20701;-75
2024/03/06 05:00:37;;;;;;;1.63;1.63;;;5.70;99.90;;;;;;5003206;28;20275;-75
2024/03/06 05:03:04;;;;;;;1.83;1.77;;;5.60;99.90;;;;;;5003103;28;20299;-74
2024/03/06 05:05:32;;;;;;;1.80;1.70;;;5.50;99.90;;;;;;5008496;28;20228;-75
2024/03/06 05:07:59;;;;;;;2.10;2.00;;;5.50;99.90;;;;;;5004876;28;20228;-75
2024/03/06 05:10:27;;;;;;;2.10;2.00;;;5.50;99.90;;;;;;5005043;28;20777;-75
2024/03/06 05:12:55;;;;;;;1.80;1.80;;;5.60;99.90;;;;;;4988264;28;20731;-75
2024/03/06 05:15:24;;;;;;;1.95;1.88;;;5.80;99.90;;;;;;5002816;28;20319;-75
2024/03/06 05:17:51;;;;;;;1.80;1.80;;;5.90;99.90;;;;;;5001071;28;20278;-75
2024/03/06 05:20:18;;;;;;;2.28;2.17;;;5.90;99.90;;;;;;5003942;28;20245;-75
2024/03/06 05:22:45;;;;;;;1.88;1.88;;;6.00;99.90;;;;;;4977154;28;20220;-75
2024/03/06 05:25:12;;;;;;;1.90;1.90;;;5.90;99.90;;;;;;4992645;28;20693;-75
2024/03/06 05:27:41;;;;;;;2.30;2.20;;;5.80;99.90;;;;;;4985367;28;20276;-75
2024/03/06 05:30:12;;;;;;;2.40;2.30;;;5.80;99.90;;;;;;4983608;28;20883;-74
2024/03/06 05:32:39;;;;;;;2.28;2.17;;;5.80;99.90;;;;;;4984668;28;20217;-76
2024/03/06 05:35:09;;;;;;;2.03;1.92;;;5.80;99.90;;;;;;4984079;28;20240;-74
2024/03/06 05:37:37;;;;;;;2.13;2.03;;;5.80;99.90;;;;;;4996806;28;20788;-74
2024/03/06 05:40:05;;;;;;;2.00;1.90;;;5.80;99.90;;;;;;5005793;28;20709;-74
2024/03/06 05:42:33;;;;;;;1.98;1.98;;;5.80;99.90;;;;;;4985340;28;20220;-74
2024/03/06 05:45:04;;;;;;;1.90;1.88;;;5.70;99.90;;;;;;4989315;28;20232;-74
2024/03/06 05:47:33;;;;;;;2.00;1.90;;;5.60;99.90;;;;;;4999876;28;20811;-73
2024/03/06 05:50:04;;;;;;;2.30;2.20;;;5.60;99.90;;;;;;5002707;28;20260;-74
2024/03/06 05:52:31;;;;;;;2.20;2.10;;;5.70;99.90;;;;;;4991078;28;20224;-74
2024/03/06 05:54:58;;;;;;;2.13;2.03;;;5.70;99.90;;;;;;5002606;28;20311;-74
2024/03/06 05:57:25;;;;;;;2.05;1.95;;;5.70;99.90;;;;;;5001711;28;20256;-73
2024/03/06 05:59:52;;;;;;;2.20;2.10;;;5.80;99.90;;;;;;4997263;28;20224;-74
2024/03/06 06:02:20;;;;;;;2.10;2.00;;;5.80;99.90;;;;;;5003613;28;20274;-74
2024/03/06 06:04:49;;;;;;;2.10;2.00;;;5.80;99.90;;;;;;5000906;28;20320;-74
2024/03/06 06:07:16;;;;;;;2.17;2.08;;;5.80;99.90;;;;;;4998692;28;20244;-74
2024/03/06 06:09:43;;;;;;;2.08;1.98;;;5.70;99.90;;;;;;4985849;28;20228;-74
2024/03/06 06:12:10;;;;;;;2.17;2.08;;;5.80;99.90;;;;;;5000883;28;20218;-74
2024/03/06 06:14:37;;;;;;;2.20;2.10;;;5.70;99.90;;;;;;4986141;28;20204;-74
2024/03/06 06:17:05;;;;;;;1.90;1.80;;;5.70;99.90;;;;;;5002729;28;20306;-74
2024/03/06 06:19:32;;;;;;;2.13;2.03;;;5.80;99.90;;;;;;5002561;28;20270;-74
2024/03/06 06:22:01;;;;;;;2.00;1.90;;;5.90;99.90;;;;;;5005473;28;20252;-74
2024/03/06 06:24:28;;;;;;;2.30;2.20;;;5.90;99.90;;;;;;5004444;28;20287;-74
2024/03/06 06:26:55;;;;;;;1.73;1.73;;;5.90;99.90;;;;;;5000388;28;20234;-74
2024/03/06 06:29:24;;;;;;;1.88;1.88;;;6.00;99.90;;;;;;5000360;28;20859;-74
2024/03/06 06:31:51;;;;;;;2.13;2.03;;;6.00;99.90;;;;;;5003522;28;20252;-74
2024/03/06 06:34:19;;;;;;;2.22;2.13;;;6.00;99.90;;;;;;5003197;28;20237;-74
2024/03/06 06:36:47;;;;;;;2.30;2.20;;;6.00;99.90;;;;;;5005336;28;20965;-73
2024/03/06 06:39:16;;;;;;;2.03;1.92;;;6.00;99.90;;;;;;5003422;28;20251;-74
2024/03/06 06:41:44;;;;;;;2.15;2.05;;;6.00;99.90;;;;;;4999806;28;20221;-74
2024/03/06 06:44:11;;;;;;;3.60;3.30;;;6.10;99.90;;;;;;5002482;28;20209;-74
2024/03/06 06:46:40;;;;;;;5.80;5.30;;;6.10;99.90;;;;;;5000803;28;20219;-75
2024/03/06 06:49:07;;;;;;;6.38;5.78;;;6.20;99.90;;;;;;4999640;28;20249;-75
2024/03/06 06:51:34;;;;;;;5.57;5.07;;;6.20;99.90;;;;;;4993934;28;20863;-74
2024/03/06 06:54:02;;;;;;;4.93;3.70;;;6.30;99.90;;;;;;4985319;28;20225;-74
2024/03/06 06:56:32;;;;;;;3.70;3.40;;;6.30;99.90;;;;;;4968219;28;20284;-73
2024/03/06 06:58:59;;;;;;;3.78;3.47;;;6.30;99.90;;;;;;4979751;28;20247;-74
2024/03/06 07:01:27;;;;;;;3.28;3.05;;;6.40;99.90;;;;;;4982068;28;20671;-74
2024/03/06 07:03:54;;;;;;;2.97;2.78;;;6.50;99.90;;;;;;4976834;28;22084;-74
2024/03/06 07:06:22;;;;;;;2.78;2.63;;;6.60;99.90;;;;;;4982786;28;20227;-73
2024/03/06 07:08:50;;;;;;;3.10;2.90;;;6.60;99.90;;;;;;4977628;28;20231;-74
2024/03/06 07:11:18;;;;;;;2.72;2.63;;;6.60;99.90;;;;;;4979615;28;20223;-75
2024/03/06 07:13:46;;;;;;;2.50;2.40;;;6.60;99.90;;;;;;4978214;28;20671;-74
2024/03/06 07:16:14;;;;;;;2.88;2.78;;;6.60;99.90;;;;;;4972228;28;20257;-74
2024/03/06 07:18:41;;;;;;;3.08;2.88;;;6.70;99.90;;;;;;4980895;28;20235;-74
2024/03/06 07:21:08;;;;;;;2.75;2.55;;;6.70;99.90;;;;;;4984512;28;20423;-74
2024/03/06 07:23:35;;;;;;;2.42;2.33;;;6.70;99.90;;;;;;4962683;28;20204;-74
2024/03/06 07:26:02;;;;;;;2.63;2.53;;;6.70;99.90;;;;;;4963495;28;20244;-74
2024/03/06 07:28:29;;;;;;;2.60;2.50;;;6.60;99.90;;;;;;4982511;28;20751;-75
2024/03/06 07:30:58;;;;;;;2.60;2.50;;;6.70;99.90;;;;;;4976076;28;20803;-74
2024/03/06 07:33:25;;;;;;;2.47;2.38;;;6.70;99.90;;;;;;4966999;28;20245;-74
2024/03/06 07:35:52;;;;;;;3.00;2.80;;;6.70;99.90;;;;;;4962439;28;20260;-74
2024/03/06 07:38:20;;;;;;;2.42;2.33;;;6.80;99.90;;;;;;5000415;28;20228;-75
2024/03/06 07:40:47;;;;;;;2.60;2.40;;;6.90;99.90;;;;;;4980197;28;21182;-74
2024/03/06 07:43:15;;;;;;;2.33;2.22;;;7.00;99.90;;;;;;4998617;28;21978;-74
2024/03/06 07:45:44;;;;;;;2.40;2.30;;;7.10;99.90;;;;;;4998557;28;20220;-74
2024/03/06 07:48:12;;;;;;;2.88;2.67;;;7.20;99.90;;;;;;4998849;28;20247;-74
2024/03/06 07:50:39;;;;;;;2.45;2.35;;;7.20;99.90;;;;;;4983236;28;20341;-75
2024/03/06 07:53:07;;;;;;;2.90;2.70;;;7.30;99.90;;;;;;4997902;28;20826;-75
2024/03/06 07:55:34;;;;;;;2.42;2.33;;;7.90;99.90;;;;;;5004677;28;20244;-75
2024/03/06 07:58:01;;;;;;;2.80;2.60;;;8.00;99.90;;;;;;4987020;28;20252;-74
2024/03/06 08:00:31;;;;;;;2.53;2.33;;;8.10;99.90;;;;;;4982488;28;20311;-74
2024/03/06 08:03:00;;;;;;;2.83;2.70;;;8.00;99.90;;;;;;4979355;28;20245;-74
2024/03/06 08:05:29;;;;;;;2.80;2.65;;;8.00;99.90;;;;;;4981309;28;20194;-74
2024/03/06 08:07:57;;;;;;;2.67;2.58;;;7.90;99.90;;;;;;4980876;28;20225;-74
2024/03/06 08:10:24;;;;;;;2.75;2.55;;;7.90;99.90;;;;;;4966413;28;20217;-74
2024/03/06 08:12:51;;;;;;;2.90;2.70;;;7.80;99.90;;;;;;4980874;28;20271;-75
2024/03/06 08:15:18;;;;;;;2.53;2.30;;;7.80;99.90;;;;;;4981033;28;20688;-75
2024/03/06 08:17:45;;;;;;;2.50;2.40;;;7.80;99.90;;;;;;4988561;28;20240;-74
2024/03/06 08:20:13;;;;;;;2.40;2.20;;;7.80;99.90;;;;;;4982570;28;20785;-75
2024/03/06 08:22:42;;;;;;;1.90;1.80;;;7.70;99.90;;;;;;4965930;28;20220;-74
2024/03/06 08:25:11;;;;;;;2.38;2.28;;;7.60;99.90;;;;;;4981613;28;20208;-73
2024/03/06 08:27:41;;;;;;;2.25;2.15;;;7.60;99.90;;;;;;4993291;28;20849;-74
2024/03/06 08:30:10;;;;;;;2.55;2.45;;;7.80;99.90;;;;;;5002269;28;20250;-74
2024/03/06 08:32:38;;;;;;;2.22;2.13;;;8.20;99.90;;;;;;4998136;28;20248;-73
2024/03/06 08:35:06;;;;;;;2.50;2.17;;;8.40;99.90;;;;;;4985812;28;20211;-73
2024/03/06 08:37:33;;;;;;;2.42;2.25;;;8.50;99.90;;;;;;5001322;28;20696;-73
2024/03/06 08:40:02;;;;;;;2.35;2.25;;;8.60;99.90;;;;;;5003154;28;20234;-72
2024/03/06 08:42:29;;;;;;;2.83;2.42;;;8.80;99.90;;;;;;4999677;28;20240;-73
2024/03/06 08:44:57;;;;;;;2.10;2.00;;;9.20;99.90;;;;;;4998927;28;20286;-72
2024/03/06 08:47:24;;;;;;;2.17;1.75;;;9.40;99.90;;;;;;4967720;28;20228;-73
2024/03/06 08:49:51;;;;;;;2.40;2.10;;;9.60;99.90;;;;;;4986036;28;20264;-72
2024/03/06 08:52:19;;;;;;;2.10;2.00;;;9.50;99.90;;;;;;4988269;28;20221;-73
2024/03/06 08:54:46;;;;;;;2.40;2.15;;;9.50;99.90;;;;;;4981097;28;20244;-73
2024/03/06 08:57:15;;;;;;;2.15;2.05;;;9.50;99.90;;;;;;4981070;28;20314;-73
2024/03/06 08:59:43;;;;;;;2.38;2.25;;;9.30;99.90;;;;;;4962404;28;20213;-73
2024/03/06 09:02:15;;;;;;;2.33;2.22;;;9.20;99.90;;;;;;4981689;28;20217;-73
2024/03/06 09:04:42;;;;;;;2.38;2.28;;;9.20;99.90;;;;;;4971983;28;20213;-73
2024/03/06 09:07:10;;;;;;;2.30;2.10;;;9.10;99.90;;;;;;4965823;28;20217;-74
2024/03/06 09:09:37;;;;;;;2.53;2.33;;;9.20;99.90;;;;;;4977451;28;20246;-73
2024/03/06 09:12:05;;;;;;;2.20;2.10;;;9.40;99.90;;;;;;4980642;28;20231;-73
2024/03/06 09:14:34;;;;;;;2.30;2.20;;;9.60;99.90;;;;;;4981354;28;20204;-73
2024/03/06 09:17:02;;;;;;;2.30;2.20;;;9.80;99.90;;;;;;4983991;28;20238;-72
2024/03/06 09:19:30;;;;;;;2.33;2.15;;;9.90;99.90;;;;;;5004705;28;21120;-72
2024/03/06 09:21:57;;;;;;;2.28;2.17;;;9.90;99.90;;;;;;4999411;28;20228;-72
2024/03/06 09:24:25;;;;;;;2.30;2.10;;;9.90;99.90;;;;;;5000068;28;20215;-72
2024/03/06 09:26:52;;;;;;;2.72;2.53;;;10.00;99.90;;;;;;4997261;28;20746;-71
2024/03/06 09:29:19;;;;;;;2.30;2.20;;;10.00;99.90;;;;;;5001561;28;20251;-72
2024/03/06 09:31:48;;;;;;;2.15;2.05;;;10.00;99.90;;;;;;4995085;28;20800;-72
2024/03/06 09:34:16;;;;;;;2.20;2.10;;;10.00;99.90;;;;;;4982459;28;20894;-72
2024/03/06 09:36:47;;;;;;;2.38;1.90;;;9.90;99.90;;;;;;4998491;28;20928;-72
2024/03/06 09:39:16;;;;;;;2.25;2.15;;;9.80;99.90;;;;;;4996190;28;20745;-72
2024/03/06 09:41:44;;;;;;;2.00;1.90;;;9.70;99.90;;;;;;5002192;28;20227;-72
2024/03/06 09:44:12;;;;;;;2.97;2.60;;;9.60;99.90;;;;;;4995356;28;20212;-72
2024/03/06 09:46:39;;;;;;;2.60;2.50;;;9.50;99.90;;;;;;4999948;28;20345;-72
2024/03/06 09:49:09;;;;;;;2.20;2.10;;;9.30;99.90;;;;;;5001795;28;20232;-72
2024/03/06 09:51:38;;;;;;;2.25;2.15;;;9.20;99.90;;;;;;4999046;28;20232;-73
2024/03/06 09:54:09;;;;;;;2.53;2.33;;;9.10;99.90;;;;;;4999615;28;20671;-72
2024/03/06 09:56:37;;;;;;;2.10;2.00;;;9.10;99.90;;;;;;5000800;28;20307;-72
2024/03/06 09:59:04;;;;;;;2.00;1.90;;;9.00;99.90;;;;;;5000593;28;20374;-72
2024/03/06 10:01:33;;;;;;;2.10;2.00;;;9.00;99.90;;;;;;5000584;28;20227;-72
2024/03/06 10:04:00;;;;;;;2.00;1.90;;;9.00;99.90;;;;;;5001638;28;20285;-72
2024/03/06 10:06:30;;;;;;;1.90;1.80;;;9.00;99.90;;;;;;4998858;28;20251;-72
2024/03/06 10:09:10;;;;;;;2.10;2.00;;;8.90;99.90;;;;;;4996677;28;20231;-72
2024/03/06 10:11:40;;;;;;;1.92;1.83;;;8.90;99.90;;;;;;4980097;28;20750;-72
2024/03/06 10:14:07;;;;;;;2.03;1.92;;;8.80;99.90;;;;;;4982315;28;20635;-72
2024/03/06 10:16:36;;;;;;;2.92;2.25;;;8.80;99.90;;;;;;4975215;28;20229;-71
2024/03/06 10:19:18;;;;;;;2.30;2.20;;;8.80;99.90;;;;;;4979836;28;20326;-72
2024/03/06 10:21:50;;;;;;;2.50;2.35;;;8.80;99.90;;;;;;4962748;28;20275;-72
2024/03/06 10:24:21;;;;;;;1.95;1.80;;;8.70;99.90;;;;;;4976998;28;20210;-72
2024/03/06 10:26:48;;;;;;;2.33;2.22;;;8.80;99.90;;;;;;4976876;28;20228;-72
2024/03/06 10:29:18;;;;;;;2.40;2.30;;;9.00;99.90;;;;;;4979971;28;20311;-72
2024/03/06 10:31:52;;;;;;;2.13;2.03;;;9.20;99.90;;;;;;4980072;28;20221;-72
2024/03/06 10:34:20;;;;;;;2.47;2.28;;;9.50;99.90;;;;;;4978089;28;20235;-72
2024/03/06 10:36:54;;;;;;;2.40;2.30;;;9.70;99.90;;;;;;4957597;28;20295;-72
2024/03/06 10:39:22;;;;;;;2.10;1.95;;;9.70;99.90;;;;;;4959727;28;20220;-72
2024/03/06 10:41:54;;;;;;;2.40;2.20;;;9.80;99.90;;;;;;4978317;28;20890;-72
2024/03/06 10:44:23;;;;;;;2.40;2.20;;;9.90;99.90;;;;;;4977696;28;20240;-72
2024/03/06 10:46:57;;;;;;;1.98;1.88;;;9.90;99.90;;;;;;4980352;28;21115;-72
2024/03/06 10:49:25;;;;;;;2.47;2.38;;;9.90;99.90;;;;;;4979965;28;20725;-72
2024/03/06 10:51:58;;;;;;;2.80;2.10;;;9.90;99.90;;;;;;4973760;28;20256;-72
2024/03/06 10:54:28;;;;;;;2.25;2.15;;;10.00;99.90;;;;;;4977846;28;20291;-72
2024/03/06 10:56:58;;;;;;;1.90;1.80;;;10.10;99.90;;;;;;4961128;28;20229;-73
2024/03/06 10:59:28;;;;;;;2.00;1.90;;;10.20;99.90;;;;;;4974939;28;20236;-72
2024/03/06 11:01:56;;;;;;;1.80;1.70;;;10.30;99.90;;;;;;4980941;28;20801;-72
2024/03/06 11:04:28;;;;;;;1.83;1.73;;;10.20;99.90;;;;;;4994728;28;20256;-72
2024/03/06 11:06:59;;;;;;;4.70;2.00;;;10.10;99.90;;;;;;4984890;28;20808;-72
2024/03/06 11:09:26;;;;;;;2.10;2.00;;;10.20;99.90;;;;;;4993378;28;20224;-72
2024/03/06 11:11:55;;;;;;;2.10;2.00;;;10.40;99.90;;;;;;4995870;28;20988;-72
2024/03/06 11:14:24;;;;;;;1.90;1.80;;;10.40;99.90;;;;;;4998454;28;20831;-72
2024/03/06 11:17:00;;;;;;;1.90;1.80;;;10.60;99.90;;;;;;4997016;28;20228;-72
2024/03/06 11:19:27;;;;;;;1.90;1.80;;;10.50;99.90;;;;;;4999390;28;20227;-72
2024/03/06 11:21:56;;;;;;;2.05;1.95;;;10.50;99.90;;;;;;4995131;28;20219;-72
2024/03/06 11:24:24;;;;;;;1.80;1.70;;;10.50;99.90;;;;;;4997067;28;20336;-72
2024/03/06 11:27:22;;;;;;;2.08;1.98;;;10.60;99.90;;;;;;4979308;28;20660;-72
2024/03/06 11:30:10;;;;;;;2.30;2.20;;;10.60;99.90;;;;;;4994038;28;20265;-71
2024/03/06 11:32:38;;;;;;;2.28;2.17;;;10.70;99.90;;;;;;4999348;28;20227;-73
2024/03/06 11:35:08;;;;;;;2.40;2.20;;;10.90;99.90;;;;;;4999386;28;20685;-73
2024/03/06 11:37:38;;;;;;;2.95;2.42;;;11.10;99.90;;;;;;5000995;28;20275;-73
2024/03/06 11:40:08;;;;;;;2.03;1.92;;;11.40;99.90;;;;;;4997646;28;20212;-73
2024/03/06 11:42:36;;;;;;;2.00;1.88;;;11.70;99.90;;;;;;4996348;28;20223;-73
2024/03/06 11:45:15;;;;;;;1.88;1.77;;;11.70;99.90;;;;;;4984297;28;20205;-73
2024/03/06 11:47:57;;;;;;;2.22;2.13;;;11.80;99.90;;;;;;4997812;28;20758;-73
2024/03/06 11:50:27;;;;;;;1.95;1.85;;;11.90;99.90;;;;;;4996320;28;20228;-73
2024/03/06 11:52:57;;;;;;;2.20;2.10;;;12.00;99.90;;;;;;4995884;28;20729;-73
2024/03/06 11:55:25;;;;;;;2.10;2.00;;;12.00;99.90;;;;;;4995962;28;20196;-73
2024/03/06 11:57:53;;;;;;;2.08;1.98;;;11.90;99.90;;;;;;4996722;28;20326;-73
2024/03/06 12:00:22;;;;;;;1.60;1.50;;;11.80;99.90;;;;;;4969513;28;20441;-73
2024/03/06 12:02:50;;;;;;;1.80;1.70;;;11.60;99.90;;;;;;4992104;28;20249;-73
2024/03/06 12:05:18;;;;;;;1.98;1.88;;;11.50;99.90;;;;;;4978017;28;20236;-73
2024/03/06 12:07:48;;;;;;;1.90;1.80;;;11.20;99.90;;;;;;4994488;28;20308;-73
2024/03/06 12:10:18;;;;;;;1.70;1.60;;;11.20;99.90;;;;;;4994784;28;20251;-73
2024/03/06 12:12:45;;;;;;;2.25;2.15;;;11.10;99.90;;;;;;4995868;28;20298;-73
2024/03/06 12:15:14;;;;;;;2.78;1.95;;;11.00;99.90;;;;;;4979476;28;20204;-73
2024/03/06 12:17:46;;;;;;;1.90;1.80;;;10.80;99.90;;;;;;4995928;28;20760;-73
2024/03/06 12:20:15;;;;;;;1.90;1.80;;;10.70;99.90;;;;;;4997750;28;20220;-73
2024/03/06 12:22:46;;;;;;;1.88;1.77;;;10.70;99.90;;;;;;4977678;28;20217;-73
2024/03/06 12:25:22;;;;;;;2.00;1.90;;;10.80;99.90;;;;;;4971895;28;20237;-73
2024/03/06 12:27:50;;;;;;;2.30;2.10;;;11.00;99.90;;;;;;4994849;28;20224;-73
2024/03/06 12:30:18;;;;;;;1.90;1.80;;;11.10;99.90;;;;;;4997384;28;20302;-73
2024/03/06 12:32:45;;;;;;;1.77;1.67;;;11.20;99.90;;;;;;4969844;28;20314;-73
2024/03/06 12:35:13;;;;;;;1.88;1.77;;;11.20;99.90;;;;;;4977441;28;20694;-72
2024/03/06 12:37:40;;;;;;;1.90;1.50;;;11.20;99.90;;;;;;4979013;28;20244;-73
2024/03/06 12:40:13;;;;;;;2.10;2.00;;;11.20;99.90;;;;;;4977491;28;20324;-73
2024/03/06 12:42:41;;;;;;;1.50;1.50;;;11.20;99.90;;;;;;5000947;28;20220;-73
2024/03/06 12:45:10;;;;;;;1.92;1.83;;;11.10;99.90;;;;;;4999374;28;20297;-72
2024/03/06 12:47:36;;;;;;;2.00;1.90;;;11.10;99.90;;;;;;4984534;28;20223;-72
2024/03/06 12:50:04;;;;;;;1.52;1.42;;;11.10;99.90;;;;;;4980376;28;20213;-73
2024/03/06 12:52:31;;;;;;;1.58;1.48;;;11.00;99.90;;;;;;4978912;28;20423;-72
2024/03/06 12:54:58;;;;;;;1.65;1.55;;;11.00;99.90;;;;;;5001292;28;20311;-72
2024/03/06 12:57:27;;;;;;;1.60;1.50;;;11.00;99.90;;;;;;5002406;28;20244;-72
2024/03/06 12:59:56;;;;;;;1.70;1.60;;;11.00;99.90;;;;;;5002823;28;20221;-72